sensor_id;sensor_type;location;lat;lon;timestamp;P1;durP1;ratioP1;P2;durP2;ratioP2
14994;SDS011;7593;49.006;8.372;2023-01-20T00:02:25;13.50;;;10.17;;
14994;SDS011;7593;49.006;8.372;2023-01-20T00:04:52;14.07;;;10.30;;
14994;SDS011;7593;49.006;8.372;2023-01-20T00:07:19;17.83;;;11.63;;
14994;SDS011;7593;49.006;8.372;2023-01-20T00:09:45;15.40;;;10.57;;
14994;SDS011;7593;49.006;8.372;2023-01-20T00:12:12;16.83;;;10.93;;
14994;SDS011;7593;49.006;8.372;2023-01-20T00:14:39;13.23;;;10.03;;
14994;SDS011;7593;49.006;8.372;2023-01-20T00:17:06;14.23;;;10.43;;
14994;SDS011;7593;49.006;8.372;2023-01-20T00:19:34;17.03;;;9.80;;
14994;SDS011;7593;49.006;8.372;2023-01-20T00:22:01;11.50;;;9.10;;
14994;SDS011;7593;49.006;8.372;2023-01-20T00:24:28;13.40;;;10.20;;
14994;SDS011;7593;49.006;8.372;2023-01-20T00:26:54;17.63;;;11.50;;
14994;SDS011;7593;49.006;8.372;2023-01-20T00:29:21;16.03;;;10.30;;
14994;SDS011;7593;49.006;8.372;2023-01-20T00:31:48;11.90;;;9.33;;
14994;SDS011;7593;49.006;8.372;2023-01-20T00:34:15;13.13;;;9.63;;
14994;SDS011;7593;49.006;8.372;2023-01-20T00:36:43;11.33;;;9.30;;
14994;SDS011;7593;49.006;8.372;2023-01-20T00:39:10;12.80;;;9.50;;
14994;SDS011;7593;49.006;8.372;2023-01-20T00:41:37;12.10;;;9.30;;
14994;SDS011;7593;49.006;8.372;2023-01-20T00:44:03;13.33;;;9.33;;
14994;SDS011;7593;49.006;8.372;2023-01-20T00:46:30;11.97;;;9.50;;
14994;SDS011;7593;49.006;8.372;2023-01-20T00:48:57;10.87;;;8.90;;
14994;SDS011;7593;49.006;8.372;2023-01-20T00:51:24;11.37;;;9.13;;
14994;SDS011;7593;49.006;8.372;2023-01-20T00:53:52;14.13;;;9.00;;
14994;SDS011;7593;49.006;8.372;2023-01-20T00:56:19;11.83;;;9.33;;
14994;SDS011;7593;49.006;8.372;2023-01-20T00:58:45;14.43;;;9.30;;
14994;SDS011;7593;49.006;8.372;2023-01-20T01:01:12;16.37;;;11.17;;
14994;SDS011;7593;49.006;8.372;2023-01-20T01:03:39;13.13;;;9.73;;
14994;SDS011;7593;49.006;8.372;2023-01-20T01:06:06;12.40;;;9.27;;
14994;SDS011;7593;49.006;8.372;2023-01-20T01:08:34;11.80;;;9.07;;
14994;SDS011;7593;49.006;8.372;2023-01-20T01:11:03;12.10;;;9.00;;
14994;SDS011;7593;49.006;8.372;2023-01-20T01:13:30;9.87;;;8.73;;
14994;SDS011;7593;49.006;8.372;2023-01-20T01:15:57;10.77;;;8.93;;
14994;SDS011;7593;49.006;8.372;2023-01-20T01:18:24;11.17;;;8.97;;
14994;SDS011;7593;49.006;8.372;2023-01-20T01:20:50;11.67;;;8.80;;
14994;SDS011;7593;49.006;8.372;2023-01-20T01:23:17;12.73;;;9.87;;
14994;SDS011;7593;49.006;8.372;2023-01-20T01:25:44;12.40;;;9.13;;
14994;SDS011;7593;49.006;8.372;2023-01-20T01:28:12;10.23;;;9.13;;
14994;SDS011;7593;49.006;8.372;2023-01-20T01:30:39;13.07;;;8.57;;
14994;SDS011;7593;49.006;8.372;2023-01-20T01:33:06;11.27;;;8.80;;
14994;SDS011;7593;49.006;8.372;2023-01-20T01:35:33;11.60;;;9.07;;
14994;SDS011;7593;49.006;8.372;2023-01-20T01:38:08;10.33;;;8.57;;
14994;SDS011;7593;49.006;8.372;2023-01-20T01:40:35;10.20;;;8.53;;
14994;SDS011;7593;49.006;8.372;2023-01-20T01:43:09;9.90;;;8.03;;
14994;SDS011;7593;49.006;8.372;2023-01-20T01:45:49;10.03;;;8.33;;
14994;SDS011;7593;49.006;8.372;2023-01-20T01:48:16;10.37;;;8.50;;
14994;SDS011;7593;49.006;8.372;2023-01-20T01:50:47;11.30;;;7.83;;
14994;SDS011;7593;49.006;8.372;2023-01-20T01:53:18;11.03;;;8.47;;
14994;SDS011;7593;49.006;8.372;2023-01-20T01:55:46;10.57;;;7.90;;
14994;SDS011;7593;49.006;8.372;2023-01-20T01:58:16;10.20;;;8.00;;
14994;SDS011;7593;49.006;8.372;2023-01-20T02:00:48;11.27;;;8.60;;
14994;SDS011;7593;49.006;8.372;2023-01-20T02:03:14;9.37;;;7.37;;
14994;SDS011;7593;49.006;8.372;2023-01-20T02:05:41;10.27;;;7.50;;
14994;SDS011;7593;49.006;8.372;2023-01-20T02:08:10;10.53;;;7.80;;
14994;SDS011;7593;49.006;8.372;2023-01-20T02:10:36;10.77;;;7.70;;
14994;SDS011;7593;49.006;8.372;2023-01-20T02:13:03;9.43;;;8.07;;
14994;SDS011;7593;49.006;8.372;2023-01-20T02:15:33;8.70;;;7.80;;
14994;SDS011;7593;49.006;8.372;2023-01-20T02:18:11;10.23;;;7.97;;
14994;SDS011;7593;49.006;8.372;2023-01-20T02:20:55;9.53;;;8.53;;
14994;SDS011;7593;49.006;8.372;2023-01-20T02:23:47;10.37;;;8.30;;
14994;SDS011;7593;49.006;8.372;2023-01-20T02:26:38;12.90;;;8.37;;
14994;SDS011;7593;49.006;8.372;2023-01-20T02:32:41;9.57;;;8.17;;
14994;SDS011;7593;49.006;8.372;2023-01-20T02:35:16;9.00;;;7.47;;
14994;SDS011;7593;49.006;8.372;2023-01-20T02:37:50;10.27;;;7.87;;
14994;SDS011;7593;49.006;8.372;2023-01-20T02:40:25;9.30;;;7.67;;
14994;SDS011;7593;49.006;8.372;2023-01-20T02:42:58;10.37;;;8.23;;
14994;SDS011;7593;49.006;8.372;2023-01-20T02:45:30;8.67;;;7.20;;
14994;SDS011;7593;49.006;8.372;2023-01-20T02:48:05;10.67;;;8.27;;
14994;SDS011;7593;49.006;8.372;2023-01-20T02:50:39;9.63;;;7.60;;
14994;SDS011;7593;49.006;8.372;2023-01-20T02:53:10;12.13;;;7.83;;
14994;SDS011;7593;49.006;8.372;2023-01-20T02:55:39;12.30;;;7.67;;
14994;SDS011;7593;49.006;8.372;2023-01-20T02:58:10;9.93;;;7.47;;
14994;SDS011;7593;49.006;8.372;2023-01-20T03:00:47;9.03;;;7.37;;
14994;SDS011;7593;49.006;8.372;2023-01-20T03:03:21;8.70;;;7.50;;
14994;SDS011;7593;49.006;8.372;2023-01-20T03:06:00;10.40;;;7.43;;
14994;SDS011;7593;49.006;8.372;2023-01-20T03:08:31;12.67;;;7.63;;
14994;SDS011;7593;49.006;8.372;2023-01-20T03:10:59;11.37;;;8.03;;
14994;SDS011;7593;49.006;8.372;2023-01-20T03:13:31;10.00;;;7.80;;
14994;SDS011;7593;49.006;8.372;2023-01-20T03:16:03;11.27;;;8.20;;
14994;SDS011;7593;49.006;8.372;2023-01-20T03:18:34;9.00;;;7.20;;
14994;SDS011;7593;49.006;8.372;2023-01-20T03:21:03;9.60;;;7.57;;
14994;SDS011;7593;49.006;8.372;2023-01-20T03:23:32;9.80;;;7.60;;
14994;SDS011;7593;49.006;8.372;2023-01-20T03:26:02;9.53;;;7.40;;
14994;SDS011;7593;49.006;8.372;2023-01-20T03:28:32;9.37;;;7.20;;
14994;SDS011;7593;49.006;8.372;2023-01-20T03:30:59;8.53;;;6.73;;
14994;SDS011;7593;49.006;8.372;2023-01-20T03:33:30;8.80;;;6.57;;
14994;SDS011;7593;49.006;8.372;2023-01-20T03:35:58;10.40;;;7.47;;
14994;SDS011;7593;49.006;8.372;2023-01-20T03:38:25;8.60;;;7.17;;
14994;SDS011;7593;49.006;8.372;2023-01-20T03:40:52;9.17;;;6.10;;
14994;SDS011;7593;49.006;8.372;2023-01-20T03:43:27;10.63;;;6.87;;
14994;SDS011;7593;49.006;8.372;2023-01-20T03:45:59;7.13;;;6.00;;
14994;SDS011;7593;49.006;8.372;2023-01-20T03:48:34;7.07;;;5.40;;
14994;SDS011;7593;49.006;8.372;2023-01-20T03:51:09;8.30;;;6.97;;
14994;SDS011;7593;49.006;8.372;2023-01-20T03:53:42;7.53;;;6.23;;
14994;SDS011;7593;49.006;8.372;2023-01-20T03:56:13;8.20;;;6.50;;
14994;SDS011;7593;49.006;8.372;2023-01-20T03:58:44;7.43;;;6.33;;
14994;SDS011;7593;49.006;8.372;2023-01-20T04:01:14;7.90;;;6.17;;
14994;SDS011;7593;49.006;8.372;2023-01-20T04:03:44;7.87;;;6.30;;
14994;SDS011;7593;49.006;8.372;2023-01-20T04:06:15;7.27;;;6.23;;
14994;SDS011;7593;49.006;8.372;2023-01-20T04:08:44;8.20;;;6.03;;
14994;SDS011;7593;49.006;8.372;2023-01-20T04:11:15;7.20;;;5.63;;
14994;SDS011;7593;49.006;8.372;2023-01-20T04:13:42;7.33;;;5.97;;
14994;SDS011;7593;49.006;8.372;2023-01-20T04:16:09;7.97;;;6.07;;
14994;SDS011;7593;49.006;8.372;2023-01-20T04:18:40;9.10;;;6.60;;
14994;SDS011;7593;49.006;8.372;2023-01-20T04:21:09;7.33;;;5.60;;
14994;SDS011;7593;49.006;8.372;2023-01-20T04:23:43;8.63;;;5.93;;
14994;SDS011;7593;49.006;8.372;2023-01-20T04:26:14;8.53;;;5.90;;
14994;SDS011;7593;49.006;8.372;2023-01-20T04:28:43;6.63;;;5.70;;
14994;SDS011;7593;49.006;8.372;2023-01-20T04:31:10;7.87;;;6.10;;
14994;SDS011;7593;49.006;8.372;2023-01-20T04:33:38;6.40;;;5.43;;
14994;SDS011;7593;49.006;8.372;2023-01-20T04:36:06;6.70;;;5.77;;
14994;SDS011;7593;49.006;8.372;2023-01-20T04:38:33;8.50;;;6.10;;
14994;SDS011;7593;49.006;8.372;2023-01-20T04:41:01;9.47;;;6.00;;
14994;SDS011;7593;49.006;8.372;2023-01-20T04:43:28;7.83;;;5.73;;
14994;SDS011;7593;49.006;8.372;2023-01-20T04:45:55;6.73;;;6.03;;
14994;SDS011;7593;49.006;8.372;2023-01-20T04:48:22;7.57;;;5.87;;
14994;SDS011;7593;49.006;8.372;2023-01-20T04:50:49;7.80;;;5.77;;
14994;SDS011;7593;49.006;8.372;2023-01-20T04:53:16;6.77;;;5.70;;
14994;SDS011;7593;49.006;8.372;2023-01-20T04:55:43;7.90;;;6.00;;
14994;SDS011;7593;49.006;8.372;2023-01-20T04:58:12;8.50;;;6.40;;
14994;SDS011;7593;49.006;8.372;2023-01-20T05:00:39;10.03;;;6.33;;
14994;SDS011;7593;49.006;8.372;2023-01-20T05:03:06;8.77;;;6.30;;
14994;SDS011;7593;49.006;8.372;2023-01-20T05:05:32;8.33;;;6.13;;
14994;SDS011;7593;49.006;8.372;2023-01-20T05:07:59;7.27;;;5.83;;
14994;SDS011;7593;49.006;8.372;2023-01-20T05:10:29;7.63;;;6.43;;
14994;SDS011;7593;49.006;8.372;2023-01-20T05:12:57;8.47;;;6.33;;
14994;SDS011;7593;49.006;8.372;2023-01-20T05:15:26;7.17;;;6.20;;
14994;SDS011;7593;49.006;8.372;2023-01-20T05:17:53;8.33;;;6.40;;
14994;SDS011;7593;49.006;8.372;2023-01-20T05:20:20;8.97;;;6.23;;
14994;SDS011;7593;49.006;8.372;2023-01-20T05:22:47;7.73;;;5.90;;
14994;SDS011;7593;49.006;8.372;2023-01-20T05:25:14;9.43;;;5.90;;
14994;SDS011;7593;49.006;8.372;2023-01-20T05:27:41;8.23;;;6.23;;
14994;SDS011;7593;49.006;8.372;2023-01-20T05:30:09;12.07;;;6.40;;
14994;SDS011;7593;49.006;8.372;2023-01-20T05:32:38;8.30;;;6.17;;
14994;SDS011;7593;49.006;8.372;2023-01-20T05:35:05;6.97;;;5.67;;
14994;SDS011;7593;49.006;8.372;2023-01-20T05:37:32;11.10;;;6.60;;
14994;SDS011;7593;49.006;8.372;2023-01-20T05:40:02;7.63;;;6.33;;
14994;SDS011;7593;49.006;8.372;2023-01-20T05:42:30;7.33;;;6.13;;
14994;SDS011;7593;49.006;8.372;2023-01-20T05:44:57;7.60;;;5.70;;
14994;SDS011;7593;49.006;8.372;2023-01-20T05:47:24;6.90;;;5.63;;
14994;SDS011;7593;49.006;8.372;2023-01-20T05:49:52;9.33;;;5.57;;
14994;SDS011;7593;49.006;8.372;2023-01-20T05:52:19;8.77;;;6.10;;
14994;SDS011;7593;49.006;8.372;2023-01-20T05:54:46;10.13;;;7.13;;
14994;SDS011;7593;49.006;8.372;2023-01-20T05:57:13;9.40;;;7.00;;
14994;SDS011;7593;49.006;8.372;2023-01-20T05:59:42;8.90;;;6.60;;
14994;SDS011;7593;49.006;8.372;2023-01-20T06:02:09;8.57;;;6.33;;
14994;SDS011;7593;49.006;8.372;2023-01-20T06:04:37;7.80;;;6.10;;
14994;SDS011;7593;49.006;8.372;2023-01-20T06:07:08;8.10;;;6.20;;
14994;SDS011;7593;49.006;8.372;2023-01-20T06:09:35;7.77;;;6.13;;
14994;SDS011;7593;49.006;8.372;2023-01-20T06:12:02;7.40;;;6.13;;
14994;SDS011;7593;49.006;8.372;2023-01-20T06:14:31;8.43;;;6.53;;
14994;SDS011;7593;49.006;8.372;2023-01-20T06:16:58;10.97;;;7.50;;
14994;SDS011;7593;49.006;8.372;2023-01-20T06:19:25;9.77;;;6.70;;
14994;SDS011;7593;49.006;8.372;2023-01-20T06:21:51;9.20;;;5.97;;
14994;SDS011;7593;49.006;8.372;2023-01-20T06:24:19;7.93;;;6.10;;
14994;SDS011;7593;49.006;8.372;2023-01-20T06:26:48;8.93;;;6.80;;
14994;SDS011;7593;49.006;8.372;2023-01-20T06:29:16;8.57;;;6.47;;
14994;SDS011;7593;49.006;8.372;2023-01-20T06:31:42;9.67;;;6.23;;
14994;SDS011;7593;49.006;8.372;2023-01-20T06:34:09;7.07;;;6.10;;
14994;SDS011;7593;49.006;8.372;2023-01-20T06:36:36;8.37;;;6.60;;
14994;SDS011;7593;49.006;8.372;2023-01-20T06:39:05;8.20;;;6.23;;
14994;SDS011;7593;49.006;8.372;2023-01-20T06:41:33;7.77;;;6.50;;
14994;SDS011;7593;49.006;8.372;2023-01-20T06:44:00;8.67;;;7.53;;
14994;SDS011;7593;49.006;8.372;2023-01-20T06:46:27;9.27;;;6.80;;
14994;SDS011;7593;49.006;8.372;2023-01-20T06:48:54;8.67;;;6.97;;
14994;SDS011;7593;49.006;8.372;2023-01-20T06:51:25;9.13;;;6.43;;
14994;SDS011;7593;49.006;8.372;2023-01-20T06:53:52;9.00;;;7.20;;
14994;SDS011;7593;49.006;8.372;2023-01-20T06:56:20;7.17;;;5.97;;
14994;SDS011;7593;49.006;8.372;2023-01-20T06:58:48;8.07;;;6.17;;
14994;SDS011;7593;49.006;8.372;2023-01-20T07:01:29;8.00;;;6.53;;
14994;SDS011;7593;49.006;8.372;2023-01-20T07:03:56;7.80;;;6.43;;
14994;SDS011;7593;49.006;8.372;2023-01-20T07:06:24;8.73;;;6.20;;
14994;SDS011;7593;49.006;8.372;2023-01-20T07:08:53;8.60;;;7.47;;
14994;SDS011;7593;49.006;8.372;2023-01-20T07:11:21;7.97;;;6.23;;
14994;SDS011;7593;49.006;8.372;2023-01-20T07:13:49;7.73;;;5.67;;
14994;SDS011;7593;49.006;8.372;2023-01-20T07:16:16;6.20;;;5.57;;
14994;SDS011;7593;49.006;8.372;2023-01-20T07:18:46;7.13;;;5.43;;
14994;SDS011;7593;49.006;8.372;2023-01-20T07:21:13;7.33;;;5.90;;
14994;SDS011;7593;49.006;8.372;2023-01-20T07:23:40;8.13;;;5.20;;
14994;SDS011;7593;49.006;8.372;2023-01-20T07:26:10;9.03;;;6.27;;
14994;SDS011;7593;49.006;8.372;2023-01-20T07:28:42;9.10;;;6.03;;
14994;SDS011;7593;49.006;8.372;2023-01-20T07:31:14;7.80;;;5.53;;
14994;SDS011;7593;49.006;8.372;2023-01-20T07:33:43;6.53;;;5.40;;
14994;SDS011;7593;49.006;8.372;2023-01-20T07:36:11;8.43;;;6.10;;
14994;SDS011;7593;49.006;8.372;2023-01-20T07:38:38;9.53;;;6.20;;
14994;SDS011;7593;49.006;8.372;2023-01-20T07:41:07;8.47;;;6.10;;
14994;SDS011;7593;49.006;8.372;2023-01-20T07:43:39;9.83;;;6.90;;
14994;SDS011;7593;49.006;8.372;2023-01-20T07:46:06;9.43;;;6.80;;
14994;SDS011;7593;49.006;8.372;2023-01-20T07:48:35;7.43;;;5.90;;
14994;SDS011;7593;49.006;8.372;2023-01-20T07:51:02;9.30;;;6.60;;
14994;SDS011;7593;49.006;8.372;2023-01-20T07:53:31;8.33;;;5.90;;
14994;SDS011;7593;49.006;8.372;2023-01-20T07:56:00;7.97;;;6.00;;
14994;SDS011;7593;49.006;8.372;2023-01-20T07:58:27;10.70;;;6.60;;
14994;SDS011;7593;49.006;8.372;2023-01-20T08:00:55;7.40;;;5.97;;
14994;SDS011;7593;49.006;8.372;2023-01-20T08:03:22;11.30;;;6.37;;
14994;SDS011;7593;49.006;8.372;2023-01-20T08:05:51;10.67;;;6.40;;
14994;SDS011;7593;49.006;8.372;2023-01-20T08:08:17;7.90;;;5.60;;
14994;SDS011;7593;49.006;8.372;2023-01-20T08:10:44;9.83;;;6.93;;
14994;SDS011;7593;49.006;8.372;2023-01-20T08:13:12;12.50;;;9.03;;
14994;SDS011;7593;49.006;8.372;2023-01-20T08:15:38;8.30;;;6.50;;
14994;SDS011;7593;49.006;8.372;2023-01-20T08:18:05;12.23;;;7.77;;
14994;SDS011;7593;49.006;8.372;2023-01-20T08:20:32;8.63;;;6.57;;
14994;SDS011;7593;49.006;8.372;2023-01-20T08:23:06;7.47;;;5.83;;
14994;SDS011;7593;49.006;8.372;2023-01-20T08:25:33;8.40;;;6.23;;
14994;SDS011;7593;49.006;8.372;2023-01-20T08:28:02;10.27;;;6.00;;
14994;SDS011;7593;49.006;8.372;2023-01-20T08:30:29;11.17;;;6.90;;
14994;SDS011;7593;49.006;8.372;2023-01-20T08:32:56;8.53;;;6.37;;
14994;SDS011;7593;49.006;8.372;2023-01-20T08:35:23;12.47;;;8.77;;
14994;SDS011;7593;49.006;8.372;2023-01-20T08:37:51;12.47;;;8.00;;
14994;SDS011;7593;49.006;8.372;2023-01-20T08:40:19;14.83;;;9.10;;
14994;SDS011;7593;49.006;8.372;2023-01-20T08:42:46;10.10;;;7.53;;
14994;SDS011;7593;49.006;8.372;2023-01-20T08:45:13;12.20;;;8.43;;
14994;SDS011;7593;49.006;8.372;2023-01-20T08:47:40;10.83;;;7.53;;
14994;SDS011;7593;49.006;8.372;2023-01-20T08:50:11;10.10;;;7.60;;
14994;SDS011;7593;49.006;8.372;2023-01-20T08:52:39;9.63;;;7.23;;
14994;SDS011;7593;49.006;8.372;2023-01-20T08:55:07;10.67;;;8.00;;
14994;SDS011;7593;49.006;8.372;2023-01-20T08:57:35;12.13;;;8.13;;
14994;SDS011;7593;49.006;8.372;2023-01-20T09:00:03;9.80;;;8.33;;
14994;SDS011;7593;49.006;8.372;2023-01-20T09:02:31;9.27;;;7.73;;
14994;SDS011;7593;49.006;8.372;2023-01-20T09:04:57;10.07;;;7.93;;
14994;SDS011;7593;49.006;8.372;2023-01-20T09:07:24;10.60;;;8.27;;
14994;SDS011;7593;49.006;8.372;2023-01-20T09:09:57;9.80;;;8.17;;
14994;SDS011;7593;49.006;8.372;2023-01-20T09:12:24;10.57;;;8.83;;
14994;SDS011;7593;49.006;8.372;2023-01-20T09:14:52;10.57;;;8.07;;
14994;SDS011;7593;49.006;8.372;2023-01-20T09:17:22;9.50;;;8.00;;
14994;SDS011;7593;49.006;8.372;2023-01-20T09:20:04;12.60;;;8.97;;
14994;SDS011;7593;49.006;8.372;2023-01-20T09:22:32;10.50;;;8.77;;
14994;SDS011;7593;49.006;8.372;2023-01-20T09:24:59;12.33;;;8.40;;
14994;SDS011;7593;49.006;8.372;2023-01-20T09:27:25;10.87;;;8.40;;
14994;SDS011;7593;49.006;8.372;2023-01-20T09:29:53;12.17;;;8.80;;
14994;SDS011;7593;49.006;8.372;2023-01-20T09:32:20;9.33;;;7.93;;
14994;SDS011;7593;49.006;8.372;2023-01-20T09:34:47;9.13;;;7.67;;
14994;SDS011;7593;49.006;8.372;2023-01-20T09:37:14;10.43;;;7.77;;
14994;SDS011;7593;49.006;8.372;2023-01-20T09:39:58;9.93;;;7.43;;
14994;SDS011;7593;49.006;8.372;2023-01-20T09:42:56;9.73;;;7.60;;
14994;SDS011;7593;49.006;8.372;2023-01-20T09:45:50;9.00;;;7.50;;
14994;SDS011;7593;49.006;8.372;2023-01-20T09:48:23;8.93;;;6.67;;
14994;SDS011;7593;49.006;8.372;2023-01-20T09:51:12;8.10;;;6.80;;
14994;SDS011;7593;49.006;8.372;2023-01-20T09:54:06;11.20;;;7.23;;
14994;SDS011;7593;49.006;8.372;2023-01-20T09:56:40;8.10;;;6.90;;
14994;SDS011;7593;49.006;8.372;2023-01-20T09:59:12;8.83;;;7.03;;
14994;SDS011;7593;49.006;8.372;2023-01-20T10:01:47;7.97;;;6.60;;
14994;SDS011;7593;49.006;8.372;2023-01-20T10:04:19;9.23;;;7.27;;
14994;SDS011;7593;49.006;8.372;2023-01-20T10:06:51;8.00;;;6.97;;
14994;SDS011;7593;49.006;8.372;2023-01-20T10:09:23;9.67;;;7.60;;
14994;SDS011;7593;49.006;8.372;2023-01-20T10:11:58;10.63;;;7.60;;
14994;SDS011;7593;49.006;8.372;2023-01-20T10:14:30;10.13;;;7.73;;
14994;SDS011;7593;49.006;8.372;2023-01-20T10:17:05;9.13;;;7.70;;
14994;SDS011;7593;49.006;8.372;2023-01-20T10:19:38;8.60;;;7.60;;
14994;SDS011;7593;49.006;8.372;2023-01-20T10:22:12;9.43;;;7.13;;
14994;SDS011;7593;49.006;8.372;2023-01-20T10:24:48;9.05;;;7.07;;
14994;SDS011;7593;49.006;8.372;2023-01-20T10:27:19;10.00;;;8.20;;
14994;SDS011;7593;49.006;8.372;2023-01-20T10:29:51;9.43;;;7.80;;
14994;SDS011;7593;49.006;8.372;2023-01-20T10:32:27;12.15;;;8.68;;
14994;SDS011;7593;49.006;8.372;2023-01-20T10:34:59;9.68;;;8.32;;
14994;SDS011;7593;49.006;8.372;2023-01-20T10:37:32;11.20;;;8.27;;
14994;SDS011;7593;49.006;8.372;2023-01-20T10:40:02;10.33;;;8.30;;
14994;SDS011;7593;49.006;8.372;2023-01-20T10:42:39;9.57;;;8.20;;
14994;SDS011;7593;49.006;8.372;2023-01-20T10:45:08;11.07;;;8.53;;
14994;SDS011;7593;49.006;8.372;2023-01-20T10:47:48;9.90;;;8.37;;
14994;SDS011;7593;49.006;8.372;2023-01-20T10:50:27;11.48;;;8.43;;
14994;SDS011;7593;49.006;8.372;2023-01-20T10:53:14;11.15;;;9.13;;
14994;SDS011;7593;49.006;8.372;2023-01-20T10:56:00;11.07;;;9.02;;
14994;SDS011;7593;49.006;8.372;2023-01-20T10:58:34;11.65;;;9.32;;
14994;SDS011;7593;49.006;8.372;2023-01-20T11:01:05;9.82;;;8.43;;
14994;SDS011;7593;49.006;8.372;2023-01-20T11:03:35;10.63;;;8.93;;
14994;SDS011;7593;49.006;8.372;2023-01-20T11:06:05;11.00;;;8.82;;
14994;SDS011;7593;49.006;8.372;2023-01-20T11:08:34;10.80;;;9.55;;
14994;SDS011;7593;49.006;8.372;2023-01-20T11:11:07;11.23;;;9.57;;
14994;SDS011;7593;49.006;8.372;2023-01-20T11:13:36;13.32;;;9.75;;
14994;SDS011;7593;49.006;8.372;2023-01-20T11:16:05;12.43;;;9.73;;
14994;SDS011;7593;49.006;8.372;2023-01-20T11:18:40;12.65;;;9.88;;
14994;SDS011;7593;49.006;8.372;2023-01-20T11:21:07;12.63;;;9.45;;
14994;SDS011;7593;49.006;8.372;2023-01-20T11:23:37;11.00;;;9.20;;
14994;SDS011;7593;49.006;8.372;2023-01-20T11:26:07;10.97;;;9.77;;
14994;SDS011;7593;49.006;8.372;2023-01-20T11:28:46;12.13;;;9.83;;
14994;SDS011;7593;49.006;8.372;2023-01-20T11:31:16;11.27;;;9.43;;
14994;SDS011;7593;49.006;8.372;2023-01-20T11:33:54;13.68;;;9.98;;
14994;SDS011;7593;49.006;8.372;2023-01-20T11:36:23;12.55;;;9.63;;
14994;SDS011;7593;49.006;8.372;2023-01-20T11:38:54;12.63;;;9.65;;
14994;SDS011;7593;49.006;8.372;2023-01-20T11:41:22;12.27;;;9.75;;
14994;SDS011;7593;49.006;8.372;2023-01-20T11:43:51;10.25;;;9.23;;
14994;SDS011;7593;49.006;8.372;2023-01-20T11:46:21;10.70;;;9.60;;
14994;SDS011;7593;49.006;8.372;2023-01-20T11:48:50;11.57;;;10.13;;
14994;SDS011;7593;49.006;8.372;2023-01-20T11:51:45;11.20;;;9.52;;
14994;SDS011;7593;49.006;8.372;2023-01-20T11:54:14;11.20;;;9.27;;
14994;SDS011;7593;49.006;8.372;2023-01-20T11:56:44;10.70;;;9.13;;
14994;SDS011;7593;49.006;8.372;2023-01-20T12:02:00;10.63;;;9.52;;
14994;SDS011;7593;49.006;8.372;2023-01-20T12:04:56;10.80;;;9.00;;
14994;SDS011;7593;49.006;8.372;2023-01-20T12:07:32;11.30;;;9.13;;
14994;SDS011;7593;49.006;8.372;2023-01-20T12:10:03;12.27;;;8.73;;
14994;SDS011;7593;49.006;8.372;2023-01-20T12:12:40;12.40;;;10.37;;
14994;SDS011;7593;49.006;8.372;2023-01-20T12:15:12;11.57;;;9.90;;
14994;SDS011;7593;49.006;8.372;2023-01-20T12:17:45;14.03;;;10.60;;
14994;SDS011;7593;49.006;8.372;2023-01-20T12:20:25;11.20;;;9.03;;
14994;SDS011;7593;49.006;8.372;2023-01-20T12:23:06;9.80;;;8.80;;
14994;SDS011;7593;49.006;8.372;2023-01-20T12:25:45;12.70;;;9.57;;
14994;SDS011;7593;49.006;8.372;2023-01-20T12:28:17;8.52;;;7.55;;
14994;SDS011;7593;49.006;8.372;2023-01-20T12:30:52;10.30;;;8.13;;
14994;SDS011;7593;49.006;8.372;2023-01-20T12:33:23;9.75;;;8.75;;
14994;SDS011;7593;49.006;8.372;2023-01-20T12:41:56;8.83;;;7.93;;
14994;SDS011;7593;49.006;8.372;2023-01-20T12:44:45;15.30;;;10.87;;
14994;SDS011;7593;49.006;8.372;2023-01-20T12:47:17;10.57;;;8.90;;
14994;SDS011;7593;49.006;8.372;2023-01-20T12:50:08;11.10;;;8.20;;
14994;SDS011;7593;49.006;8.372;2023-01-20T12:52:57;11.93;;;8.30;;
14994;SDS011;7593;49.006;8.372;2023-01-20T12:55:43;8.83;;;7.93;;
14994;SDS011;7593;49.006;8.372;2023-01-20T12:58:28;9.63;;;8.63;;
14994;SDS011;7593;49.006;8.372;2023-01-20T13:01:17;9.10;;;8.20;;
14994;SDS011;7593;49.006;8.372;2023-01-20T13:06:53;8.75;;;7.85;;
14994;SDS011;7593;49.006;8.372;2023-01-20T13:09:33;9.40;;;7.78;;
14994;SDS011;7593;49.006;8.372;2023-01-20T13:12:13;8.18;;;7.22;;
14994;SDS011;7593;49.006;8.372;2023-01-20T13:14:51;8.02;;;6.80;;
14994;SDS011;7593;49.006;8.372;2023-01-20T13:17:24;7.50;;;6.70;;
14994;SDS011;7593;49.006;8.372;2023-01-20T13:19:59;7.63;;;6.10;;
14994;SDS011;7593;49.006;8.372;2023-01-20T13:22:28;7.90;;;6.75;;
14994;SDS011;7593;49.006;8.372;2023-01-20T13:24:57;8.95;;;7.93;;
14994;SDS011;7593;49.006;8.372;2023-01-20T13:27:29;8.73;;;6.32;;
14994;SDS011;7593;49.006;8.372;2023-01-20T13:29:59;7.30;;;5.95;;
14994;SDS011;7593;49.006;8.372;2023-01-20T13:32:32;6.80;;;5.90;;
14994;SDS011;7593;49.006;8.372;2023-01-20T13:35:00;7.40;;;6.53;;
14994;SDS011;7593;49.006;8.372;2023-01-20T13:37:47;11.20;;;8.95;;
14994;SDS011;7593;49.006;8.372;2023-01-20T13:49:13;10.07;;;8.33;;
14994;SDS011;7593;49.006;8.372;2023-01-20T13:51:45;16.48;;;11.93;;
14994;SDS011;7593;49.006;8.372;2023-01-20T14:00:13;11.50;;;6.27;;
14994;SDS011;7593;49.006;8.372;2023-01-20T14:02:45;8.20;;;5.70;;
14994;SDS011;7593;49.006;8.372;2023-01-20T14:05:20;7.57;;;6.77;;
14994;SDS011;7593;49.006;8.372;2023-01-20T14:07:48;9.80;;;7.57;;
14994;SDS011;7593;49.006;8.372;2023-01-20T14:10:16;7.07;;;6.07;;
14994;SDS011;7593;49.006;8.372;2023-01-20T14:12:44;7.47;;;5.87;;
14994;SDS011;7593;49.006;8.372;2023-01-20T14:15:22;7.43;;;6.30;;
14994;SDS011;7593;49.006;8.372;2023-01-20T14:17:53;11.90;;;7.97;;
14994;SDS011;7593;49.006;8.372;2023-01-20T14:20:21;10.50;;;7.83;;
14994;SDS011;7593;49.006;8.372;2023-01-20T14:22:49;8.03;;;6.57;;
14994;SDS011;7593;49.006;8.372;2023-01-20T14:25:20;9.03;;;6.10;;
14994;SDS011;7593;49.006;8.372;2023-01-20T14:27:50;7.50;;;6.20;;
14994;SDS011;7593;49.006;8.372;2023-01-20T14:30:19;7.87;;;6.07;;
14994;SDS011;7593;49.006;8.372;2023-01-20T14:32:49;7.83;;;6.30;;
14994;SDS011;7593;49.006;8.372;2023-01-20T14:35:19;6.43;;;5.30;;
14994;SDS011;7593;49.006;8.372;2023-01-20T14:37:51;9.63;;;5.83;;
14994;SDS011;7593;49.006;8.372;2023-01-20T14:40:20;8.87;;;6.00;;
14994;SDS011;7593;49.006;8.372;2023-01-20T14:42:56;8.83;;;5.87;;
14994;SDS011;7593;49.006;8.372;2023-01-20T14:45:24;7.87;;;5.40;;
14994;SDS011;7593;49.006;8.372;2023-01-20T14:47:53;6.93;;;5.70;;
14994;SDS011;7593;49.006;8.372;2023-01-20T14:50:21;8.97;;;5.70;;
14994;SDS011;7593;49.006;8.372;2023-01-20T14:52:48;7.37;;;5.63;;
14994;SDS011;7593;49.006;8.372;2023-01-20T14:55:28;6.90;;;5.47;;
14994;SDS011;7593;49.006;8.372;2023-01-20T14:57:57;9.03;;;5.63;;
14994;SDS011;7593;49.006;8.372;2023-01-20T15:00:25;8.17;;;6.00;;
14994;SDS011;7593;49.006;8.372;2023-01-20T15:03:02;6.03;;;5.33;;
14994;SDS011;7593;49.006;8.372;2023-01-20T15:05:31;6.57;;;5.60;;
14994;SDS011;7593;49.006;8.372;2023-01-20T15:08:03;8.10;;;5.97;;
14994;SDS011;7593;49.006;8.372;2023-01-20T15:10:45;6.17;;;5.57;;
14994;SDS011;7593;49.006;8.372;2023-01-20T15:13:22;7.13;;;5.87;;
14994;SDS011;7593;49.006;8.372;2023-01-20T15:15:50;7.03;;;5.80;;
14994;SDS011;7593;49.006;8.372;2023-01-20T15:18:18;8.50;;;6.10;;
14994;SDS011;7593;49.006;8.372;2023-01-20T15:20:48;7.70;;;6.40;;
14994;SDS011;7593;49.006;8.372;2023-01-20T15:23:20;6.47;;;5.30;;
14994;SDS011;7593;49.006;8.372;2023-01-20T15:25:49;7.03;;;5.67;;
14994;SDS011;7593;49.006;8.372;2023-01-20T15:28:18;10.17;;;6.20;;
14994;SDS011;7593;49.006;8.372;2023-01-20T15:30:49;6.43;;;5.60;;
14994;SDS011;7593;49.006;8.372;2023-01-20T15:33:16;6.43;;;5.70;;
14994;SDS011;7593;49.006;8.372;2023-01-20T15:35:46;13.23;;;7.23;;
14994;SDS011;7593;49.006;8.372;2023-01-20T15:38:16;7.10;;;6.03;;
14994;SDS011;7593;49.006;8.372;2023-01-20T15:40:43;6.40;;;5.80;;
14994;SDS011;7593;49.006;8.372;2023-01-20T15:43:12;7.17;;;5.53;;
14994;SDS011;7593;49.006;8.372;2023-01-20T15:45:40;6.50;;;5.43;;
14994;SDS011;7593;49.006;8.372;2023-01-20T15:48:10;7.20;;;5.47;;